createdAt,value
2019-05-25T00:01:36.014Z,96672.31
2019-05-25T00:04:03.466Z,96671.05
2019-05-25T00:06:30.763Z,96676.85
2019-05-25T00:08:57.927Z,96677.19
2019-05-25T00:11:25.623Z,96676.83
2019-05-25T00:13:52.855Z,96669.81
2019-05-25T00:16:20.369Z,96665.97
2019-05-25T00:18:47.308Z,96667.78
2019-05-25T00:21:14.658Z,96667.91
2019-05-25T00:23:41.697Z,96665.42
2019-05-25T00:26:08.855Z,96660.19
2019-05-25T00:28:35.771Z,96662.57
2019-05-25T00:31:03.119Z,96666.41
2019-05-25T00:33:30.511Z,96674.56
2019-05-25T00:35:57.562Z,96672.78
2019-05-25T00:38:24.566Z,96679.57
2019-05-25T00:40:51.503Z,96676.63
2019-05-25T00:43:18.742Z,96674.80
2019-05-25T00:45:46.435Z,96679.91
2019-05-25T00:48:13.443Z,96678.20
2019-05-25T00:50:40.567Z,96675.39
2019-05-25T00:53:08.205Z,96674.13
2019-05-25T00:55:35.500Z,96675.03
2019-05-25T00:58:02.932Z,96676.72
2019-05-25T01:00:30.386Z,96671.42
2019-05-25T01:02:57.780Z,96674.80
2019-05-25T01:05:24.878Z,96668.25
2019-05-25T01:07:52.122Z,96669.04
2019-05-25T01:10:19.639Z,96673.91
2019-05-25T01:12:47.157Z,96668.70
2019-05-25T01:15:15.154Z,96673.02
2019-05-25T01:17:42.727Z,96670.30
2019-05-25T01:20:11.236Z,96668.94
2019-05-25T01:22:38.685Z,96666.98
2019-05-25T01:25:07.076Z,96664.50
2019-05-25T01:27:34.571Z,96663.37
2019-05-25T01:30:04.951Z,96661.22
2019-05-25T01:32:32.105Z,96658.73
2019-05-25T01:34:59.095Z,96663.04
2019-05-25T01:37:26.120Z,96664.39
2019-05-25T01:39:53.597Z,96666.22
2019-05-25T01:42:20.756Z,96664.63
2019-05-25T01:44:47.863Z,96664.96
2019-05-25T01:47:15.043Z,96664.50
2019-05-25T01:49:42.316Z,96663.50
2019-05-25T01:52:09.715Z,96663.61
2019-05-25T01:54:36.919Z,96663.94
2019-05-25T01:57:04.280Z,96668.68
2019-05-25T01:59:32.315Z,96661.00
2019-05-25T02:01:59.739Z,96663.39
2019-05-25T02:04:27.052Z,96665.64
2019-05-25T02:06:54.279Z,96664.13
2019-05-25T02:09:21.573Z,96668.32
2019-05-25T02:11:48.839Z,96669.55
2019-05-25T02:14:16.194Z,96669.22
2019-05-25T02:16:43.499Z,96666.60
2019-05-25T02:19:10.741Z,96670.77
2019-05-25T02:21:38.031Z,96666.83
2019-05-25T02:24:05.272Z,96663.42
2019-05-25T02:26:32.574Z,96661.14
2019-05-25T02:29:00.218Z,96666.23
2019-05-25T02:31:27.337Z,96670.63
2019-05-25T02:33:54.732Z,96671.73
2019-05-25T02:36:22.149Z,96671.39
2019-05-25T02:38:49.726Z,96673.31
2019-05-25T02:41:16.923Z,96676.03
2019-05-25T02:43:44.255Z,96675.80
2019-05-25T02:46:11.563Z,96682.34
2019-05-25T02:48:39.347Z,96688.00
2019-05-25T02:51:06.646Z,96683.37
2019-05-25T02:53:34.015Z,96684.48
2019-05-25T02:56:01.415Z,96688.44
2019-05-25T02:58:28.788Z,96696.93
2019-05-25T03:00:56.775Z,96689.79
2019-05-25T03:03:24.311Z,96687.78
2019-05-25T03:05:52.115Z,96687.13
2019-05-25T03:08:19.699Z,96692.19
2019-05-25T03:10:47.839Z,96692.19
2019-05-25T03:13:15.314Z,96695.92
2019-05-25T03:15:43.025Z,96697.28
2019-05-25T03:18:10.215Z,96703.50
2019-05-25T03:20:37.656Z,96694.24
2019-05-25T03:23:04.888Z,96697.19
2019-05-25T03:25:31.946Z,96704.11
2019-05-25T03:27:59.045Z,96698.88
2019-05-25T03:30:33.542Z,96699.58
2019-05-25T03:33:01.104Z,96705.47
2019-05-25T03:35:28.734Z,96700.84
2019-05-25T03:37:56.732Z,96712.81
2019-05-25T03:40:23.818Z,96713.94
2019-05-25T03:42:51.607Z,96711.56
2019-05-25T03:45:19.252Z,96711.09
2019-05-25T03:47:46.340Z,96705.90
2019-05-25T03:50:14.351Z,96709.41
2019-05-25T03:52:41.427Z,96711.23
2019-05-25T03:55:09.135Z,96720.06
2019-05-25T03:57:36.317Z,96714.28
2019-05-25T04:00:06.143Z,96723.78
2019-05-25T04:02:33.516Z,96718.35
2019-05-25T04:05:00.511Z,96716.20
2019-05-25T04:07:27.514Z,96722.09
2019-05-25T04:09:54.826Z,96723.45
2019-05-25T04:12:21.868Z,96727.29
2019-05-25T04:14:49.270Z,96723.55
2019-05-25T04:17:16.202Z,96731.02
2019-05-25T04:19:43.309Z,96728.30
2019-05-25T04:22:10.342Z,96723.91
2019-05-25T04:24:37.832Z,96723.78
2019-05-25T04:27:04.733Z,96733.28
2019-05-25T04:29:31.800Z,96731.03
2019-05-25T04:31:58.692Z,96733.32
2019-05-25T04:34:25.845Z,96736.47
2019-05-25T04:36:52.848Z,96731.73
2019-05-25T04:39:20.240Z,96733.89
2019-05-25T04:41:47.148Z,96733.33
2019-05-25T04:44:14.191Z,96734.00
2019-05-25T04:46:41.756Z,96732.54
2019-05-25T04:49:08.638Z,96736.05
2019-05-25T04:51:35.915Z,96736.38
2019-05-25T04:54:03.407Z,96738.86
2019-05-25T04:56:39.441Z,96743.16
2019-05-25T04:58:59.799Z,96747.70
2019-05-25T05:01:26.843Z,96751.91
2019-05-25T05:03:53.745Z,96748.27
2019-05-25T05:06:20.888Z,96744.10
2019-05-25T05:08:48.044Z,96740.95
2019-05-25T05:11:15.031Z,96748.77
2019-05-25T05:13:41.958Z,96745.49
2019-05-25T05:16:09.772Z,96745.30
2019-05-25T05:18:37.421Z,96752.88
2019-05-25T05:21:04.406Z,96750.73
2019-05-25T05:23:31.401Z,96748.16
2019-05-25T05:25:58.482Z,96755.17
2019-05-25T05:28:26.949Z,96759.02
2019-05-25T05:30:54.170Z,96749.62
2019-05-25T05:33:22.086Z,96755.39
2019-05-25T05:35:50.660Z,96753.47
2019-05-25T05:38:17.751Z,96755.98
2019-05-25T05:40:45.852Z,96758.35
2019-05-25T05:43:12.744Z,96763.44
2019-05-25T05:45:41.296Z,96762.53
2019-05-25T05:48:09.787Z,96760.48
2019-05-25T05:50:38.212Z,96763.98
2019-05-25T05:53:05.363Z,96763.84
2019-05-25T05:55:33.099Z,96756.71
2019-05-25T05:58:01.097Z,96756.71
2019-05-25T06:00:28.570Z,96752.41
2019-05-25T06:02:58.771Z,96756.20
2019-05-25T06:05:26.013Z,96756.20
2019-05-25T06:07:52.822Z,96755.64
2019-05-25T06:10:20.763Z,96758.20
2019-05-25T06:12:47.784Z,96753.89
2019-05-25T06:15:15.631Z,96750.77
2019-05-25T06:17:42.527Z,96743.39
2019-05-25T06:20:09.535Z,96743.77
2019-05-25T06:22:36.568Z,96745.96
2019-05-25T06:25:06.386Z,96748.41
2019-05-25T06:27:33.737Z,96741.49
2019-05-25T06:30:01.048Z,96748.22
2019-05-25T06:32:28.763Z,96743.89
2019-05-25T06:34:55.859Z,96747.99
2019-05-25T06:37:22.909Z,96747.23
2019-05-25T06:39:49.935Z,96755.65
2019-05-25T06:42:17.459Z,96750.94
2019-05-25T06:44:44.752Z,96749.09
2019-05-25T06:47:11.917Z,96748.02
2019-05-25T06:49:38.723Z,96748.08
2019-05-25T06:52:05.889Z,96747.08
2019-05-25T06:54:32.960Z,96741.74
2019-05-25T06:57:00.190Z,96741.25
2019-05-25T06:59:27.320Z,96742.34
2019-05-25T07:01:54.486Z,96742.06
2019-05-25T07:04:21.400Z,96751.64
2019-05-25T07:06:48.543Z,96748.63
2019-05-25T07:09:15.930Z,96746.99
2019-05-25T07:11:42.980Z,96745.95
2019-05-25T07:14:10.130Z,96744.46
2019-05-25T07:16:36.987Z,96750.45
2019-05-25T07:19:04.182Z,96743.88
2019-05-25T07:21:31.225Z,96744.11
2019-05-25T07:23:58.154Z,96739.76
2019-05-25T07:26:25.322Z,96745.88
2019-05-25T07:28:52.727Z,96748.80
2019-05-25T07:31:20.126Z,96750.45
2019-05-25T07:33:47.079Z,96750.94
2019-05-25T07:36:13.975Z,96742.42
2019-05-25T07:38:41.011Z,96747.84
2019-05-25T07:41:08.280Z,96749.56
2019-05-25T07:43:35.301Z,96749.24
2019-05-25T07:46:02.484Z,96749.55
2019-05-25T07:48:29.634Z,96749.34
2019-05-25T07:50:56.663Z,96747.17
2019-05-25T07:53:23.575Z,96749.84
2019-05-25T07:55:50.667Z,96750.11
2019-05-25T07:58:18.645Z,96750.56
2019-05-25T08:00:45.932Z,96748.21
2019-05-25T08:03:12.954Z,96751.09
2019-05-25T08:05:40.212Z,96753.19
2019-05-25T08:08:07.226Z,96750.50
2019-05-25T08:10:34.295Z,96747.09
2019-05-25T08:13:01.291Z,96750.91
2019-05-25T08:15:28.215Z,96746.70
2019-05-25T08:17:55.220Z,96740.16
2019-05-25T08:20:22.567Z,96742.34
2019-05-25T08:22:49.766Z,96745.97
2019-05-25T08:25:16.997Z,96745.09
2019-05-25T08:27:44.023Z,96737.59
2019-05-25T08:30:11.282Z,96740.69
2019-05-25T08:32:38.209Z,96736.39
2019-05-25T08:35:07.465Z,96742.62
2019-05-25T08:37:34.389Z,96739.89
2019-05-25T08:40:03.068Z,96743.38
2019-05-25T08:42:29.960Z,96738.02
2019-05-25T08:44:57.021Z,96732.67
2019-05-25T08:47:24.356Z,96736.75
2019-05-25T08:49:51.378Z,96731.19
2019-05-25T08:52:18.318Z,96734.06
2019-05-25T08:54:45.767Z,96739.85
2019-05-25T08:57:18.712Z,96737.84
2019-05-25T08:59:46.879Z,96736.92
2019-05-25T09:02:13.782Z,96744.44
2019-05-25T09:04:40.747Z,96740.17
2019-05-25T09:07:08.263Z,96740.80
2019-05-25T09:09:35.173Z,96740.23
2019-05-25T09:12:02.551Z,96734.83
2019-05-25T09:14:40.430Z,96742.98
2019-05-25T09:17:07.777Z,96747.22
2019-05-25T09:19:34.614Z,96746.61
2019-05-25T09:22:03.823Z,96739.36
2019-05-25T09:24:30.764Z,96739.09
2019-05-25T09:26:58.287Z,96738.75
2019-05-25T09:29:25.330Z,96742.54
2019-05-25T09:31:52.231Z,96734.53
2019-05-25T09:34:19.579Z,96736.19
2019-05-25T09:36:46.668Z,96735.35
2019-05-25T09:39:13.771Z,96742.92
2019-05-25T09:41:41.302Z,96742.83
2019-05-25T09:44:08.702Z,96744.63
2019-05-25T09:46:35.504Z,96745.29
2019-05-25T09:49:02.711Z,96736.50
2019-05-25T09:51:29.864Z,96742.93
2019-05-25T09:53:57.077Z,96740.71
2019-05-25T09:56:24.147Z,96739.42
2019-05-25T09:58:50.976Z,96739.55
2019-05-25T10:01:18.305Z,96738.49
2019-05-25T10:03:45.677Z,96737.71
2019-05-25T10:06:13.466Z,96737.61
2019-05-25T10:08:41.055Z,96736.36
2019-05-25T10:11:08.153Z,96738.05
2019-05-25T10:13:35.083Z,96741.11
2019-05-25T10:16:01.987Z,96735.53
2019-05-25T10:18:28.951Z,96743.67
2019-05-25T10:20:56.177Z,96745.60
2019-05-25T10:23:23.315Z,96740.03
2019-05-25T10:25:50.817Z,96740.72
2019-05-25T10:28:17.863Z,96746.23
2019-05-25T10:30:44.838Z,96743.84
2019-05-25T10:33:11.859Z,96743.04
2019-05-25T10:35:38.979Z,96739.24
2019-05-25T10:38:05.987Z,96734.41
2019-05-25T10:40:33.041Z,96740.38
2019-05-25T10:43:00.221Z,96739.83
2019-05-25T10:45:27.586Z,96728.45
2019-05-25T10:47:54.762Z,96730.08
2019-05-25T10:50:22.099Z,96732.65
2019-05-25T10:52:48.936Z,96730.13
2019-05-25T10:55:16.365Z,96724.34
2019-05-25T10:57:44.556Z,96721.99
2019-05-25T11:00:12.802Z,96724.39
2019-05-25T11:02:39.708Z,96718.30
2019-05-25T11:05:07.800Z,96718.47
2019-05-25T11:07:35.325Z,96718.86
2019-05-25T11:10:05.944Z,96709.08
2019-05-25T11:12:32.971Z,96717.16
2019-05-25T11:14:59.967Z,96716.47
2019-05-25T11:17:27.038Z,96718.41
2019-05-25T11:19:53.985Z,96722.51
2019-05-25T11:22:20.973Z,96721.98
2019-05-25T11:24:48.197Z,96717.81
2019-05-25T11:27:15.203Z,96715.03
2019-05-25T11:29:42.356Z,96716.33
2019-05-25T11:32:09.523Z,96710.59
2019-05-25T11:34:36.575Z,96710.24
2019-05-25T11:37:03.679Z,96711.28
2019-05-25T11:39:30.586Z,96706.77
2019-05-25T11:41:57.748Z,96709.55
2019-05-25T11:44:24.940Z,96712.45
2019-05-25T11:46:52.306Z,96704.22
2019-05-25T11:49:22.655Z,96706.85
2019-05-25T11:51:48.646Z,96708.97
2019-05-25T11:54:15.695Z,96704.01
2019-05-25T11:56:42.715Z,96705.22
2019-05-25T11:59:09.855Z,96702.23
2019-05-25T12:01:36.999Z,96702.95
2019-05-25T12:04:04.235Z,96704.61
2019-05-25T12:06:32.589Z,96707.89
2019-05-25T12:08:59.730Z,96702.94
2019-05-25T12:11:26.731Z,96694.17
2019-05-25T12:13:53.793Z,96701.47
2019-05-25T12:16:20.905Z,96700.44
2019-05-25T12:18:48.115Z,96705.11
2019-05-25T12:21:15.435Z,96703.23
2019-05-25T12:23:42.547Z,96699.13
2019-05-25T12:26:09.560Z,96699.30
2019-05-25T12:28:36.536Z,96700.52
2019-05-25T12:31:03.728Z,96697.99
2019-05-25T12:33:30.871Z,96702.08
2019-05-25T12:35:57.904Z,96699.14
2019-05-25T12:38:24.954Z,96694.01
2019-05-25T12:40:53.905Z,96690.12
2019-05-25T12:43:20.856Z,96693.67
2019-05-25T12:45:48.043Z,96697.05
2019-05-25T12:48:15.456Z,96694.91
2019-05-25T12:50:42.447Z,96703.38
2019-05-25T12:53:09.610Z,96695.81
2019-05-25T12:55:36.651Z,96694.78
2019-05-25T12:58:03.664Z,96693.52
2019-05-25T13:00:30.836Z,96693.67
2019-05-25T13:02:57.989Z,96689.20
2019-05-25T13:05:33.486Z,96688.85
2019-05-25T13:07:53.950Z,96687.03
2019-05-25T13:10:21.282Z,96687.97
2019-05-25T13:12:48.424Z,96684.86
2019-05-25T13:15:15.831Z,96680.88
2019-05-25T13:17:42.992Z,96678.42
2019-05-25T13:20:10.421Z,96681.77
2019-05-25T13:22:37.455Z,96677.60
2019-05-25T13:25:07.935Z,96682.45
2019-05-25T13:27:34.936Z,96676.30
2019-05-25T13:30:04.853Z,96677.68
2019-05-25T13:32:32.072Z,96674.40
2019-05-25T13:34:58.983Z,96663.75
2019-05-25T13:37:26.425Z,96666.09
2019-05-25T13:39:53.412Z,96667.41
2019-05-25T13:42:20.334Z,96668.02
2019-05-25T13:44:47.671Z,96662.81
2019-05-25T13:47:14.608Z,96664.35
2019-05-25T13:49:41.716Z,96666.38
2019-05-25T13:52:08.622Z,96662.03
2019-05-25T13:54:35.888Z,96660.03
2019-05-25T13:57:03.219Z,96660.64
2019-05-25T13:59:30.266Z,96656.55
2019-05-25T14:01:57.348Z,96661.41
2019-05-25T14:04:24.516Z,96657.73
2019-05-25T14:06:51.996Z,96654.09
2019-05-25T14:09:19.100Z,96654.08
2019-05-25T14:11:46.320Z,96645.38
2019-05-25T14:21:18.518Z,96648.69
2019-05-25T14:23:45.661Z,96647.10
2019-05-25T14:26:12.700Z,96641.62
2019-05-25T14:28:39.609Z,96638.58
2019-05-25T14:31:07.554Z,96644.22
2019-05-25T14:33:34.455Z,96637.95
2019-05-25T14:36:01.610Z,96638.46
2019-05-25T14:38:28.611Z,96633.82
2019-05-25T14:40:55.939Z,96633.19
2019-05-25T14:43:22.836Z,96629.33
2019-05-25T14:45:53.358Z,96631.83
2019-05-25T14:48:19.126Z,96629.89
2019-05-25T14:50:46.592Z,96633.90
2019-05-25T14:53:13.951Z,96632.33
2019-05-25T14:55:41.079Z,96627.87
2019-05-25T14:58:08.094Z,96634.70
2019-05-25T15:00:35.285Z,96636.14
2019-05-25T15:03:02.382Z,96629.12
2019-05-25T15:05:29.415Z,96629.95
2019-05-25T15:07:56.456Z,96622.69
2019-05-25T15:10:23.379Z,96626.48
2019-05-25T15:12:50.647Z,96628.70
2019-05-25T15:15:18.314Z,96629.58
2019-05-25T15:17:45.602Z,96625.47
2019-05-25T15:20:13.454Z,96627.09
2019-05-25T15:22:40.557Z,96628.20
2019-05-25T15:25:08.861Z,96622.55
2019-05-25T15:27:36.100Z,96625.77
2019-05-25T15:30:07.082Z,96617.95
2019-05-25T15:32:34.615Z,96622.41
2019-05-25T15:35:03.139Z,96617.78
2019-05-25T15:37:30.197Z,96624.23
2019-05-25T15:39:57.092Z,96620.36
2019-05-25T15:42:24.139Z,96627.59
2019-05-25T15:44:51.135Z,96625.13
2019-05-25T15:47:18.327Z,96632.16
2019-05-25T15:49:45.220Z,96636.25
2019-05-25T15:52:12.843Z,96629.63
2019-05-25T15:54:40.090Z,96627.13
2019-05-25T15:57:07.003Z,96625.02
2019-05-25T15:59:33.939Z,96628.24
2019-05-25T16:02:01.206Z,96631.46
2019-05-25T16:04:28.191Z,96629.77
2019-05-25T16:06:55.225Z,96631.38
2019-05-25T16:09:22.388Z,96630.84
2019-05-25T16:11:49.479Z,96633.65
2019-05-25T16:14:16.445Z,96635.67
2019-05-25T16:16:43.349Z,96635.73
2019-05-25T16:19:10.683Z,96638.53
2019-05-25T16:21:37.736Z,96642.56
2019-05-25T16:24:07.911Z,96646.14
2019-05-25T16:26:45.677Z,96645.23
2019-05-25T16:29:03.352Z,96643.12
2019-05-25T16:31:30.386Z,96642.38
2019-05-25T16:33:57.283Z,96638.88
2019-05-25T16:36:24.451Z,96636.96
2019-05-25T16:38:51.291Z,96636.45
2019-05-25T16:41:18.214Z,96635.53
2019-05-25T16:43:45.569Z,96638.58
2019-05-25T16:46:12.843Z,96644.73
2019-05-25T16:48:40.036Z,96652.29
2019-05-25T16:51:07.055Z,96653.47
2019-05-25T16:53:34.054Z,96661.63
2019-05-25T16:56:01.154Z,96663.27
2019-05-25T16:58:28.352Z,96662.91
2019-05-25T17:00:55.469Z,96656.68
2019-05-25T17:03:28.104Z,96658.32
2019-05-25T17:05:51.900Z,96662.53
2019-05-25T17:08:18.959Z,96661.81
2019-05-25T17:10:45.787Z,96657.55
2019-05-25T17:13:12.904Z,96657.61
2019-05-25T17:15:39.970Z,96657.48
2019-05-25T17:18:06.994Z,96662.46
2019-05-25T17:20:34.380Z,96673.17
2019-05-25T17:23:01.276Z,96673.00
2019-05-25T17:25:28.199Z,96671.88
2019-05-25T17:27:55.237Z,96676.84
2019-05-25T17:30:43.703Z,96675.70
2019-05-25T17:33:11.788Z,96679.69
2019-05-25T17:35:39.499Z,96671.46
2019-05-25T17:38:07.065Z,96672.69
2019-05-25T17:40:34.057Z,96681.78
2019-05-25T17:43:01.444Z,96674.73
2019-05-25T17:45:28.459Z,96677.91
2019-05-25T17:47:55.979Z,96681.45
2019-05-25T17:50:23.280Z,96687.39
2019-05-25T17:52:50.205Z,96688.96
2019-05-25T17:55:17.634Z,96688.20
2019-05-25T17:57:44.723Z,96691.15
2019-05-25T18:00:13.873Z,96684.84
2019-05-25T18:02:40.876Z,96677.56
2019-05-25T18:05:09.074Z,96686.02
2019-05-25T18:07:36.083Z,96685.46
2019-05-25T18:10:07.992Z,96686.64
2019-05-25T18:12:34.957Z,96683.09
2019-05-25T18:15:08.148Z,96684.30
2019-05-25T18:17:35.149Z,96682.33
2019-05-25T18:20:06.176Z,96686.67
2019-05-25T18:22:33.070Z,96687.28
2019-05-25T18:25:00.552Z,96689.84
2019-05-25T18:27:27.528Z,96691.25
2019-05-25T18:29:54.450Z,96688.89
2019-05-25T18:32:21.867Z,96692.23
2019-05-25T18:34:48.692Z,96700.88
2019-05-25T18:37:15.760Z,96702.06
2019-05-25T18:39:42.970Z,96704.22
2019-05-25T18:42:09.939Z,96708.33
2019-05-25T18:44:36.863Z,96703.56
2019-05-25T19:01:06.261Z,96725.71
2019-05-25T19:30:27.280Z,96742.22
2019-05-25T19:32:54.682Z,96742.22
2019-05-25T19:35:22.231Z,96740.47
2019-05-25T19:37:49.287Z,96740.86
2019-05-25T19:40:17.099Z,96740.86
2019-05-25T19:42:44.038Z,96747.52
2019-05-25T19:45:13.278Z,96751.81
2019-05-25T19:47:40.453Z,96749.98
2019-05-25T19:50:08.265Z,96748.95
2019-05-25T19:52:35.826Z,96755.34
2019-05-25T19:55:06.617Z,96753.91
2019-05-25T19:57:33.828Z,96750.92
2019-05-25T20:00:01.052Z,96753.61
2019-05-25T20:02:28.681Z,96761.80
2019-05-25T20:04:55.689Z,96757.95
2019-05-25T20:07:22.773Z,96761.37
2019-05-25T20:09:49.784Z,96754.41
2019-05-25T20:12:16.824Z,96762.58
2019-05-25T20:14:43.930Z,96757.23
2019-05-25T20:17:10.836Z,96766.26
2019-05-25T20:19:37.739Z,96765.26
2019-05-25T20:22:06.944Z,96762.88
2019-05-25T20:24:34.107Z,96764.23
2019-05-25T20:27:01.784Z,96763.81
2019-05-25T20:29:28.985Z,96767.93
2019-05-25T20:31:56.183Z,96772.25
2019-05-25T20:34:22.988Z,96774.05
2019-05-25T20:36:50.237Z,96779.13
2019-05-25T20:39:17.477Z,96789.31
2019-05-25T20:41:44.634Z,96793.61
2019-05-25T20:44:11.500Z,96791.01
2019-05-25T20:46:38.772Z,96790.95
2019-05-25T20:49:06.103Z,96785.81
2019-05-25T20:51:33.374Z,96793.20
2019-05-25T20:54:00.512Z,96792.78
2019-05-25T20:56:27.819Z,96785.88
2019-05-25T20:58:55.025Z,96793.30
2019-05-25T21:01:21.835Z,96789.34
2019-05-25T21:03:48.994Z,96784.81
2019-05-25T21:06:16.383Z,96787.90
2019-05-25T21:08:43.533Z,96789.40
2019-05-25T21:11:10.582Z,96787.31
2019-05-25T21:13:37.445Z,96787.92
2019-05-25T21:16:04.764Z,96792.25
2019-05-25T21:18:32.110Z,96797.81
2019-05-25T21:20:59.019Z,96804.35
2019-05-25T21:23:26.121Z,96806.02
2019-05-25T21:25:53.126Z,96803.97
2019-05-25T21:28:20.259Z,96805.66
2019-05-25T21:30:47.394Z,96805.38
2019-05-25T21:33:14.577Z,96808.59
2019-05-25T21:35:41.874Z,96800.70
2019-05-25T21:38:09.620Z,96813.95
2019-05-25T21:40:36.768Z,96806.33
2019-05-25T21:43:03.971Z,96813.38
2019-05-25T21:45:31.157Z,96810.82
2019-05-25T21:47:58.576Z,96811.55
2019-05-25T21:50:25.507Z,96809.74
2019-05-25T21:52:52.359Z,96814.59
2019-05-25T21:55:19.680Z,96809.99
2019-05-25T21:57:46.727Z,96812.22
2019-05-25T22:00:17.935Z,96812.15
2019-05-25T22:02:45.427Z,96815.34
2019-05-25T22:05:12.720Z,96812.70
2019-05-25T22:07:39.669Z,96823.52
2019-05-25T22:10:07.368Z,96828.73
2019-05-25T22:12:34.647Z,96826.05
2019-05-25T22:15:02.240Z,96826.58
2019-05-25T22:17:29.632Z,96821.61
2019-05-25T22:19:57.125Z,96830.69
2019-05-25T22:22:24.080Z,96831.78
2019-05-25T22:24:51.081Z,96828.53
2019-05-25T22:27:18.535Z,96825.17
2019-05-25T22:29:45.637Z,96820.86
2019-05-25T22:32:12.693Z,96820.64
2019-05-25T22:34:39.842Z,96818.84
2019-05-25T22:37:06.872Z,96817.06
2019-05-25T22:39:34.034Z,96818.43
2019-05-25T22:42:01.036Z,96820.20
2019-05-25T22:44:28.098Z,96814.73
2019-05-25T22:46:54.996Z,96813.38
2019-05-25T22:49:22.020Z,96818.84
2019-05-25T22:51:49.227Z,96818.65
2019-05-25T22:54:17.459Z,96814.33
2019-05-25T22:56:44.790Z,96819.80
2019-05-25T22:59:11.787Z,96818.78
2019-05-25T23:01:38.850Z,96816.63
2019-05-25T23:04:05.744Z,96817.42
2019-05-25T23:06:33.503Z,96813.53
2019-05-25T23:09:00.771Z,96810.58
2019-05-25T23:11:28.022Z,96810.09
2019-05-25T23:13:55.120Z,96812.52
2019-05-25T23:16:21.978Z,96815.13
2019-05-25T23:18:48.982Z,96813.48
2019-05-25T23:21:16.023Z,96812.59
2019-05-25T23:23:42.937Z,96803.69
2019-05-25T23:26:10.095Z,96808.66
2019-05-25T23:28:37.379Z,96811.66
2019-05-25T23:31:04.276Z,96814.10
2019-05-25T23:33:31.308Z,96817.54
2019-05-25T23:35:58.514Z,96814.87
2019-05-25T23:38:25.568Z,96816.53
2019-05-25T23:40:52.455Z,96814.83
2019-05-25T23:43:19.562Z,96814.77
2019-05-25T23:45:46.652Z,96820.35
2019-05-25T23:48:13.963Z,96818.55
2019-05-25T23:50:41.178Z,96820.64
2019-05-25T23:53:08.117Z,96814.17
2019-05-25T23:55:35.018Z,96814.52
2019-05-25T23:58:01.960Z,96807.25
